Map

Track Data

SID SEASON NUMBER BASIN SUBBASIN NAME ISO_TIME NATURE LAT LON WMO_WIND WMO_PRES WMO_AGENCY TRACK_TYPE DIST2LAND LANDFALL IFLAG USA_AGENCY USA_ATCF_ID USA_LAT USA_LON USA_RECORD USA_STATUS USA_WIND USA_PRES USA_SSHS USA_R34_NE USA_R34_SE USA_R34_SW USA_R34_NW USA_R50_NE USA_R50_SE USA_R50_SW USA_R50_NW USA_R64_NE USA_R64_SE USA_R64_SW USA_R64_NW USA_POCI USA_ROCI USA_RMW USA_EYE TOKYO_LAT TOKYO_LON TOKYO_GRADE TOKYO_WIND TOKYO_PRES TOKYO_R50_DIR TOKYO_R50_LONG TOKYO_R50_SHORT TOKYO_R30_DIR TOKYO_R30_LONG TOKYO_R30_SHORT TOKYO_LAND CMA_LAT CMA_LON CMA_CAT CMA_WIND CMA_PRES HKO_LAT HKO_LON HKO_CAT HKO_WIND HKO_PRES NEWDELHI_LAT NEWDELHI_LON NEWDELHI_GRADE NEWDELHI_WIND NEWDELHI_PRES NEWDELHI_CI NEWDELHI_DP NEWDELHI_POCI REUNION_LAT REUNION_LON REUNION_TYPE REUNION_WIND REUNION_PRES REUNION_TNUM REUNION_CI REUNION_RMW REUNION_R34_NE REUNION_R34_SE REUNION_R34_SW REUNION_R34_NW REUNION_R50_NE REUNION_R50_SE REUNION_R50_SW REUNION_R50_NW REUNION_R64_NE REUNION_R64_SE REUNION_R64_SW REUNION_R64_NW BOM_LAT BOM_LON BOM_TYPE BOM_WIND BOM_PRES BOM_TNUM BOM_CI BOM_RMW BOM_R34_NE BOM_R34_SE BOM_R34_SW BOM_R34_NW BOM_R50_NE BOM_R50_SE BOM_R50_SW BOM_R50_NW BOM_R64_NE BOM_R64_SE BOM_R64_SW BOM_R64_NW BOM_ROCI BOM_POCI BOM_EYE BOM_POS_METHOD BOM_PRES_METHOD NADI_LAT NADI_LON NADI_CAT NADI_WIND NADI_PRES WELLINGTON_LAT WELLINGTON_LON WELLINGTON_WIND WELLINGTON_PRES DS824_LAT DS824_LON DS824_STAGE DS824_WIND DS824_PRES TD9636_LAT TD9636_LON TD9636_STAGE TD9636_WIND TD9636_PRES TD9635_LAT TD9635_LON TD9635_WIND TD9635_PRES TD9635_ROCI NEUMANN_LAT NEUMANN_LON NEUMANN_CLASS NEUMANN_WIND NEUMANN_PRES MLC_LAT MLC_LON MLC_CLASS MLC_WIND MLC_PRES USA_GUST BOM_GUST BOM_GUST_PER REUNION_GUST REUNION_GUST_PER USA_SEAHGT USA_SEARAD_NE USA_SEARAD_SE USA_SEARAD_SW USA_SEARAD_NW STORM_SPEED STORM_DIR
2001106N04138 2001 19 WP MM NOT_NAMED 2001-04-16 00:00:00 TS 4.20000 138.200 main 615 611 O_____________ jtwc_wp WP022001 4.20000 138.200 TD 20 -1 8 301
2001106N04138 2001 19 WP MM NOT_NAMED 2001-04-16 03:00:00 TS 4.41253 137.850 main 623 619 P_____________ WP022001 4.41253 137.850 TD 20 -1 8 300
2001106N04138 2001 19 WP MM NOT_NAMED 2001-04-16 06:00:00 TS 4.60000 137.500 main 630 626 O_____________ jtwc_wp WP022001 4.60000 137.500 TD 20 -1 8 296
2001106N04138 2001 19 WP MM NOT_NAMED 2001-04-16 09:00:00 TS 4.74998 137.150 main 627 627 P_____________ WP022001 4.74998 137.150 TD 20 -1 8 293
2001106N04138 2001 19 WP MM NOT_NAMED 2001-04-16 12:00:00 TS 4.90000 136.800 main 641 639 O_____________ jtwc_wp WP022001 4.90000 136.800 TD 20 -1 8 296
2001106N04138 2001 19 WP MM NOT_NAMED 2001-04-16 15:00:00 TS 5.09249 136.443 main 656 654 P_____________ WP022001 5.09249 136.443 TD 20 -1 8 300
2001106N04138 2001 19 WP MM NOT_NAMED 2001-04-16 18:00:00 TS 5.30000 136.100 main 674 673 O_____________ jtwc_wp WP022001 5.30000 136.100 TD 20 -1 8 302
2001106N04138 2001 19 WP MM NOT_NAMED 2001-04-16 21:00:00 TS 5.49996 135.800 main 695 694 P_____________ WP022001 5.49996 135.800 TD 20 -1 7 304
2001106N04138 2001 19 WP MM NOT_NAMED 2001-04-17 00:00:00 TS 5.70000 135.500 main 717 717 O_____________ jtwc_wp WP022001 5.70000 135.500 TD 20 -1 8 302
2001106N04138 2001 19 WP MM NOT_NAMED 2001-04-17 03:00:00 TS 5.89998 135.165 main 740 740 P_____________ WP022001 5.89998 135.165 TD 20 -1 8 300
2001106N04138 2001 19 WP MM NOT_NAMED 2001-04-17 06:00:00 TS 6.10000 134.800 main 755 752 O_____________ jtwc_wp WP022001 6.10000 134.800 TD 20 -1 9 298
2001106N04138 2001 19 WP MM NOT_NAMED 2001-04-17 09:00:00 TS 6.29999 134.407 main 762 739 P_____________ WP022001 6.29999 134.407 TD 20 -1 9 297
2001106N04138 2001 19 WP MM NOT_NAMED 2001-04-17 12:00:00 TS 6.50000 134.000 main 739 718 O_____________ jtwc_wp WP022001 6.50000 134.000 TD 20 1005 -1 9 296
2001106N04138 2001 19 WP MM NOT_NAMED 2001-04-17 15:00:00 TS 6.69249 133.592 main 718 701 P_____________ WP022001 6.69249 133.592 TD 20 -1 9 297
2001106N04138 2001 19 WP MM NOT_NAMED 2001-04-17 18:00:00 TS 6.90000 133.200 main 701 684 O_____________ jtwc_wp WP022001 6.90000 133.200 TD 20 -1 9 301
2001106N04138 2001 19 WP MM NOT_NAMED 2001-04-17 21:00:00 TS 7.14249 132.827 main 684 651 P_____________ WP022001 7.14249 132.827 TD 20 -1 9 306
2001106N04138 2001 19 WP MM NOT_NAMED 2001-04-18 00:00:00 TS 7.40000 132.500 main 651 617 O_____________ jtwc_wp WP022001 7.40000 132.500 TD 20 -1 8 311
2001106N04138 2001 19 WP MM NOT_NAMED 2001-04-18 03:00:00 TS 7.64996 132.235 main 617 595 P_____________ WP022001 7.64996 132.235 TD 20 -1 7 315
2001106N04138 2001 19 WP MM NOT_NAMED 2001-04-18 06:00:00 TS 7.90000 132.000 main 595 575 O_____________ jtwc_wp WP022001 7.90000 132.000 TD 20 -1 7 316
2001106N04138 2001 19 WP MM NOT_NAMED 2001-04-18 09:00:00 TS 8.15750 131.743 main 564 545 P_____________ WP022001 8.15750 131.743 TD 22 -1 7 315
2001106N04138 2001 19 WP MM NOT_NAMED 2001-04-18 12:00:00 TS 8.40000 131.500 main 545 527 O_____________ jtwc_wp WP022001 8.40000 131.500 TD 25 -1 6 315
2001106N04138 2001 19 WP MM NOT_NAMED 2001-04-18 15:00:00 TS 8.59996 131.300 main 527 510 P_____________ WP022001 8.59996 131.300 TD 25 -1 6 315
2001106N04138 2001 19 WP MM NOT_NAMED 2001-04-18 18:00:00 TS 8.80000 131.100 main 510 492 O_____________ jtwc_wp WP022001 8.80000 131.100 TD 25 -1 6 315
2001106N04138 2001 19 WP MM NOT_NAMED 2001-04-18 21:00:00 TS 9.05002 130.843 main 488 471 P_____________ WP022001 9.05002 130.843 TD 22 -1 7 315
2001106N04138 2001 19 WP MM NOT_NAMED 2001-04-19 00:00:00 TS 9.30000 130.600 main 475 466 O_____________ jtwc_wp WP022001 9.30000 130.600 TD 20 -1 6 318
2001106N04138 2001 19 WP MM NOT_NAMED 2001-04-19 03:00:00 TS 9.49246 130.442 main 457 448 P_____________ WP022001 9.49246 130.442 TD 20 -1 5 324
2001106N04138 2001 19 WP MM NOT_NAMED 2001-04-19 06:00:00 TS 9.70000 130.300 main 450 435 O_____________ jtwc_wp WP022001 9.70000 130.300 TD 20 -1 6 326
2001106N04138 2001 19 WP MM NOT_NAMED 2001-04-19 09:00:00 TS 10.0000 130.100 main 437 421 P_____________ WP022001 10.0000 130.100 TD 20 -1 7 327
2001106N04138 2001 19 WP MM NOT_NAMED 2001-04-19 12:00:00 TS 10.3000 129.900 main 424 417 O_____________ jtwc_wp WP022001 10.3000 129.900 TD 20 -1 6 326
2001106N04138 2001 19 WP MM NOT_NAMED 2001-04-19 15:00:00 TS 10.5075 129.750 main 410 404 P_____________ WP022001 10.5075 129.750 TD 20 -1 5 324
2001106N04138 2001 19 WP MM NOT_NAMED 2001-04-19 18:00:00 TS 10.7000 129.600 main 408 393 O_____________ jtwc_wp WP022001 10.7000 129.600 TD 20 -1 6 323
2001106N04138 2001 19 WP MM NOT_NAMED 2001-04-19 21:00:00 TS 10.9575 129.408 main 393 371 P_____________ WP022001 10.9575 129.408 TD 20 -1 6 322
2001106N04138 2001 19 WP MM NOT_NAMED 2001-04-20 00:00:00 TS 11.2000 129.200 main 371 350 O_____________ jtwc_wp WP022001 11.2000 129.200 TD 20 -1 6 316
2001106N04138 2001 19 WP MM NOT_NAMED 2001-04-20 03:00:00 TS 11.3725 129.000 main 352 332 P_____________ WP022001 11.3725 129.000 TD 20 -1 5 308
2001106N04138 2001 19 WP MM NOT_NAMED 2001-04-20 06:00:00 TS 11.5000 128.800 main 332 312 O_____________ jtwc_wp WP022001 11.5000 128.800 TD 20 -1 5 300
2001106N04138 2001 19 WP MM NOT_NAMED 2001-04-20 09:00:00 TS 11.6075 128.592 main 312 294 P_____________ WP022001 11.6075 128.592 TD 20 -1 4 297
2001106N04138 2001 19 WP MM NOT_NAMED 2001-04-20 12:00:00 TS 11.7000 128.400 main 294 283 O_____________ jtwc_wp WP022001 11.7000 128.400 TD 20 -1 4 297
2001106N04138 2001 19 WP MM NOT_NAMED 2001-04-20 15:00:00 TS 11.7850 128.242 main 276 270 P_____________ WP022001 11.7850 128.242 TD 20 -1 4 304
2001106N04138 2001 19 WP MM NOT_NAMED 2001-04-20 18:00:00 TS 11.9000 128.100 main 270 264 O_____________ jtwc_wp WP022001 11.9000 128.100 TD 20 -1 4 317
2001106N04138 2001 19 WP MM NOT_NAMED 2001-04-20 21:00:00 TS 12.0925 127.950 main 269 250 P_____________ WP022001 12.0925 127.950 TD 20 -1 5 324
2001106N04138 2001 19 WP MM NOT_NAMED 2001-04-21 00:00:00 TS 12.3000 127.800 main 250 240 O_____________ jtwc_wp WP022001 12.3000 127.800 TD 20 -1 5 321
2001106N04138 2001 19 WP MM NOT_NAMED 2001-04-21 03:00:00 TS 12.4575 127.650 main 230 221 P_____________ WP022001 12.4575 127.650 TD 20 -1 4 316
2001106N04138 2001 19 WP MM NOT_NAMED 2001-04-21 06:00:00 TS 12.6000 127.500 main 221 213 O_____________ jtwc_wp WP022001 12.6000 127.500 TD 20 -1 4 316
2001106N04138 2001 19 WP MM NOT_NAMED 2001-04-21 09:00:00 TS 12.7500 127.357 main 213 200 P_____________ WP022001 12.7500 127.357 TD 20 -1 4 316
2001106N04138 2001 19 WP MM NOT_NAMED 2001-04-21 12:00:00 TS 12.9000 127.200 main 200 185 O_____________ jtwc_wp WP022001 12.9000 127.200 TD 20 -1 5 311
2001106N04138 2001 19 WP MM NOT_NAMED 2001-04-21 15:00:00 TS 13.0425 127.007 main 185 180 P_____________ WP022001 13.0425 127.007 TD 20 -1 5 308
2001106N04138 2001 19 WP MM NOT_NAMED 2001-04-21 18:00:00 TS 13.2000 126.800 main 180 171 O_____________ jtwc_wp WP022001 13.2000 126.800 TD 20 -1 5 310
2001106N04138 2001 19 WP MM NOT_NAMED 2001-04-21 21:00:00 TS 13.3850 126.585 main 179 171 P_____________ WP022001 13.3850 126.585 TD 20 -1 6 316
2001106N04138 2001 19 WP MM NOT_NAMED 2001-04-22 00:00:00 TS 13.6000 126.400 main 179 179 O_____________ jtwc_wp WP022001 13.6000 126.400 TD 20 -1 5 327
2001106N04138 2001 19 WP MM NOT_NAMED 2001-04-22 03:00:00 TS 13.8350 126.285 main 188 188 P_____________ WP022001 13.8350 126.285 TD 20 -1 5 339
2001106N04138 2001 19 WP MM NOT_NAMED 2001-04-22 06:00:00 TS 14.1000 126.200 main 195 186 O_____________ jtwc_wp WP022001 14.1000 126.200 TD 20 -1 6 340
2001106N04138 2001 19 WP MM NOT_NAMED 2001-04-22 09:00:00 TS 14.3775 126.078 main 191 185 P_____________ WP022001 14.3775 126.078 TD 20 -1 6 342
2001106N04138 2001 19 WP MM NOT_NAMED 2001-04-22 12:00:00 TS 14.7000 126.000 main 194 194 O_____________ jtwc_wp WP022001 14.7000 126.000 TD 20 -1 7 355
2001106N04138 2001 19 WP MM NOT_NAMED 2001-04-22 15:00:00 TS 15.0825 126.020 main 218 218 P_____________ WP022001 15.0825 126.020 TD 20 -1 8 7
2001106N04138 2001 19 WP MM NOT_NAMED 2001-04-22 18:00:00 TS 15.5000 126.100 main 256 O_____________ jtwc_wp WP022001 15.5000 126.100 TD 20 1004 -1 9 10

Digital Typhoon Data and Search

About IBTrACS Database

This database is a web-friendly format of International Best Track Archive for Climate Stewardship (IBTrACS), a global best track data archive curated by NOAA dating back to 1842.

Updated: 2021-11-26